createdAt,value
2022-10-04T00:01:07.201Z,3.30
2022-10-04T00:04:02.850Z,3.30
2022-10-04T00:06:29.738Z,5.40
2022-10-04T00:09:07.686Z,3.60
2022-10-04T00:11:37.894Z,2.90
2022-10-04T00:14:36.805Z,3.10
2022-10-04T00:17:17.893Z,4.50
2022-10-04T00:19:48.653Z,3.60
2022-10-04T00:22:18.722Z,7.00
2022-10-04T00:25:06.981Z,2.90
2022-10-04T00:27:36.371Z,3.90
2022-10-04T00:30:02.602Z,4.70
2022-10-04T00:32:38.984Z,5.80
2022-10-04T00:35:26.951Z,3.90
2022-10-04T00:37:57.740Z,3.30
2022-10-04T00:40:34.687Z,4.70
2022-10-04T00:43:15.489Z,3.20
2022-10-04T00:45:54.041Z,3.70
2022-10-04T00:48:43.159Z,4.60
2022-10-04T00:51:31.350Z,3.60
2022-10-04T00:54:10.781Z,5.20
2022-10-04T00:56:51.952Z,5.00
2022-10-04T00:59:52.181Z,4.30
2022-10-04T01:03:02.226Z,4.80
2022-10-04T01:05:40.433Z,4.30
2022-10-04T01:08:22.201Z,4.90
2022-10-04T01:11:09.965Z,4.90
2022-10-04T01:13:51.339Z,5.30
2022-10-04T01:16:21.651Z,6.20
2022-10-04T01:18:48.323Z,3.90
2022-10-04T01:21:20.712Z,4.10
2022-10-04T01:23:56.759Z,3.80
2022-10-04T01:26:25.923Z,3.60
2022-10-04T01:29:10.611Z,5.60
2022-10-04T01:31:42.485Z,3.70
2022-10-04T01:34:14.226Z,4.80
2022-10-04T01:36:41.184Z,3.80
2022-10-04T01:39:08.009Z,3.40
2022-10-04T01:41:53.996Z,4.70
2022-10-04T01:44:43.556Z,3.20
2022-10-04T01:47:21.702Z,5.20
2022-10-04T01:49:51.367Z,8.00
2022-10-04T01:52:26.533Z,3.50
2022-10-04T01:55:03.332Z,3.70
2022-10-04T01:58:08.626Z,3.50
2022-10-04T02:00:43.280Z,4.70
2022-10-04T02:03:20.885Z,3.60
2022-10-04T02:05:56.221Z,3.30
2022-10-04T02:08:36.603Z,3.50
2022-10-04T02:11:05.593Z,6.10
2022-10-04T02:13:39.555Z,5.00
2022-10-04T02:16:12.514Z,4.80
2022-10-04T02:18:43.608Z,5.70
2022-10-04T02:21:12.480Z,4.60
2022-10-04T02:23:40.899Z,5.20
2022-10-04T02:26:10.330Z,5.50
2022-10-04T02:28:38.036Z,6.40
2022-10-04T02:31:26.453Z,5.10
2022-10-04T02:33:58.046Z,6.10
2022-10-04T02:36:28.955Z,5.60
2022-10-04T02:39:10.199Z,5.10
2022-10-04T02:41:56.799Z,5.70
2022-10-04T02:44:48.016Z,5.10
2022-10-04T02:47:23.419Z,6.20
2022-10-04T02:49:55.809Z,5.10
2022-10-04T02:52:31.173Z,5.00
2022-10-04T02:55:12.707Z,5.80
2022-10-04T02:57:42.383Z,6.30
2022-10-04T03:00:08.717Z,5.10
2022-10-04T03:02:35.302Z,5.40
2022-10-04T03:05:21.325Z,3.20
2022-10-04T03:07:51.558Z,4.90
2022-10-04T03:10:17.987Z,4.40
2022-10-04T03:12:50.641Z,7.00
2022-10-04T03:15:17.616Z,5.60
2022-10-04T03:17:44.105Z,4.10
2022-10-04T03:20:15.712Z,6.40
2022-10-04T03:22:47.095Z,5.10
2022-10-04T03:25:23.426Z,5.80
2022-10-04T03:27:51.661Z,4.90
2022-10-04T03:30:21.686Z,4.70
2022-10-04T03:32:50.108Z,6.00
2022-10-04T03:35:37.385Z,6.40
2022-10-04T03:38:11.912Z,4.20
2022-10-04T03:40:45.978Z,3.80
2022-10-04T03:43:14.162Z,4.80
2022-10-04T03:45:41.930Z,3.90
2022-10-04T03:48:17.645Z,5.80
2022-10-04T03:50:49.255Z,5.00
2022-10-04T03:53:30.148Z,5.40
2022-10-04T03:56:03.400Z,5.80
2022-10-04T03:58:31.599Z,6.40
2022-10-04T04:01:26.185Z,4.70
2022-10-04T04:04:32.691Z,5.00
2022-10-04T04:07:09.788Z,4.20
2022-10-04T04:09:50.458Z,4.90
2022-10-04T04:12:33.650Z,5.20
2022-10-04T04:15:01.584Z,4.60
2022-10-04T04:17:38.384Z,3.90
2022-10-04T04:20:19.100Z,4.80
2022-10-04T04:22:58.636Z,4.60
2022-10-04T04:25:28.844Z,3.70
2022-10-04T04:28:20.409Z,5.70
2022-10-04T04:30:52.642Z,4.50
2022-10-04T04:33:29.903Z,5.80
2022-10-04T04:36:05.945Z,5.10
2022-10-04T04:38:34.813Z,4.30
2022-10-04T04:41:10.500Z,6.00
2022-10-04T04:43:43.670Z,7.00
2022-10-04T04:46:28.091Z,4.50
2022-10-04T04:49:03.793Z,4.60
2022-10-04T04:51:32.749Z,4.00
2022-10-04T04:54:04.395Z,6.10
2022-10-04T04:56:32.840Z,7.10
2022-10-04T04:59:06.693Z,4.50
2022-10-04T05:01:51.678Z,3.40
2022-10-04T05:04:22.659Z,3.80
2022-10-04T05:07:16.306Z,4.60
2022-10-04T05:09:42.714Z,5.00
2022-10-04T05:12:23.041Z,9.10
2022-10-04T05:14:53.949Z,4.50
2022-10-04T05:17:26.173Z,5.10
2022-10-04T05:20:00.933Z,5.20
2022-10-04T05:22:34.747Z,4.60
2022-10-04T05:25:33.665Z,4.30
2022-10-04T05:28:00.495Z,5.80
2022-10-04T05:30:53.224Z,6.00
2022-10-04T05:33:36.640Z,6.50
2022-10-04T05:36:13.208Z,6.70
2022-10-04T05:38:56.432Z,4.50
2022-10-04T05:42:11.809Z,6.90
2022-10-04T05:44:53.975Z,5.90
2022-10-04T05:47:24.552Z,6.50
2022-10-04T05:49:57.001Z,7.60
2022-10-04T05:52:37.265Z,8.50
2022-10-04T05:55:45.807Z,11.10
2022-10-04T05:58:50.860Z,6.20
2022-10-04T06:01:36.165Z,5.20
2022-10-04T06:04:19.845Z,10.20
2022-10-04T06:07:22.515Z,7.40
2022-10-04T06:10:36.537Z,6.50
2022-10-04T06:13:58.940Z,2.80
2022-10-04T06:16:53.372Z,5.30
2022-10-04T06:20:01.494Z,6.60
2022-10-04T06:22:27.979Z,4.50
2022-10-04T06:25:03.097Z,5.20
2022-10-04T06:27:48.385Z,6.70
2022-10-04T06:30:18.559Z,4.30
2022-10-04T06:33:43.666Z,4.70
2022-10-04T06:36:41.152Z,5.60
2022-10-04T06:40:05.657Z,5.40
2022-10-04T06:42:41.705Z,6.20
2022-10-04T06:45:29.710Z,17.50
2022-10-04T06:48:22.956Z,6.30
2022-10-04T06:51:40.257Z,6.70
2022-10-04T06:54:46.336Z,5.90
2022-10-04T06:57:31.070Z,5.30
2022-10-04T07:00:28.123Z,3.60
2022-10-04T07:03:09.665Z,4.90
2022-10-04T07:05:47.913Z,9.00
2022-10-04T07:08:38.020Z,6.10
2022-10-04T07:11:50.353Z,4.80
2022-10-04T07:14:30.475Z,3.60
2022-10-04T07:17:13.389Z,5.80
2022-10-04T07:19:45.999Z,3.90
2022-10-04T07:22:35.748Z,4.60
2022-10-04T07:25:22.258Z,5.50
2022-10-04T07:28:17.170Z,4.20
2022-10-04T07:30:52.253Z,4.40
2022-10-04T07:33:24.567Z,3.80
2022-10-04T07:36:21.877Z,4.20
2022-10-04T07:38:59.726Z,3.60
2022-10-04T07:41:36.747Z,9.20
2022-10-04T07:44:20.197Z,8.80
2022-10-04T07:47:21.551Z,1.90
2022-10-04T07:49:49.885Z,2.60
2022-10-04T07:52:53.326Z,3.60
2022-10-04T07:55:48.883Z,2.80
2022-10-04T07:58:35.118Z,4.50
2022-10-04T08:01:29.065Z,3.50
2022-10-04T08:04:41.097Z,3.80
2022-10-04T08:07:48.258Z,5.50
2022-10-04T08:10:37.312Z,3.90
2022-10-04T08:13:32.792Z,3.20
2022-10-04T08:16:11.999Z,3.00
2022-10-04T08:18:58.492Z,3.10
2022-10-04T08:21:41.365Z,5.10
2022-10-04T08:24:58.572Z,2.70
2022-10-04T08:28:22.726Z,5.30
2022-10-04T08:31:31.194Z,4.10
2022-10-04T08:34:30.633Z,3.50
2022-10-04T08:37:23.677Z,3.60
2022-10-04T08:40:46.990Z,3.30
2022-10-04T08:43:44.539Z,3.30
2022-10-04T08:46:58.672Z,2.70
2022-10-04T08:50:11.834Z,2.40
2022-10-04T08:53:07.425Z,2.80
2022-10-04T08:55:45.417Z,1.10
2022-10-04T08:58:29.894Z,2.80
2022-10-04T09:01:27.703Z,4.00
2022-10-04T09:04:28.153Z,3.00
2022-10-04T09:07:41.397Z,2.80
2022-10-04T09:10:41.838Z,2.10
2022-10-04T09:13:37.982Z,2.90
2022-10-04T09:16:51.732Z,2.90
2022-10-04T09:19:33.108Z,2.80
2022-10-04T09:22:19.077Z,2.30
2022-10-04T09:25:17.066Z,5.00
2022-10-04T09:28:01.510Z,4.10
2022-10-04T09:30:54.393Z,1.60
2022-10-04T09:33:38.884Z,2.20
2022-10-04T09:36:40.876Z,1.60
2022-10-04T09:39:58.507Z,2.30
2022-10-04T09:42:45.718Z,2.50
2022-10-04T09:45:43.533Z,28.10
2022-10-04T09:48:43.808Z,3.40
2022-10-04T09:51:44.652Z,2.50
2022-10-04T09:54:27.533Z,2.30
2022-10-04T09:57:53.668Z,5.40
2022-10-04T10:00:24.200Z,2.80
2022-10-04T10:03:26.019Z,2.20
2022-10-04T10:06:23.376Z,2.80
2022-10-04T10:09:18.003Z,4.10
2022-10-04T10:12:57.247Z,1.80
2022-10-04T10:15:50.212Z,3.70
2022-10-04T10:19:05.183Z,3.60
2022-10-04T10:22:12.949Z,1.70
2022-10-04T10:24:57.480Z,2.00
2022-10-04T10:27:55.320Z,3.60
2022-10-04T10:30:58.519Z,1.90
2022-10-04T10:34:08.706Z,2.30
2022-10-04T10:36:45.956Z,1.30
2022-10-04T10:39:44.673Z,2.40
2022-10-04T10:43:04.970Z,2.00
2022-10-04T10:46:04.288Z,2.10
2022-10-04T10:49:27.557Z,3.30
2022-10-04T10:52:41.840Z,3.50
2022-10-04T10:55:40.672Z,2.30
2022-10-04T10:58:56.756Z,1.80
2022-10-04T11:01:47.150Z,4.30
2022-10-04T11:04:49.187Z,4.40
2022-10-04T11:07:34.023Z,3.80
2022-10-04T11:10:54.554Z,2.30
2022-10-04T11:14:04.654Z,2.80
2022-10-04T11:16:56.687Z,2.80
2022-10-04T11:19:54.281Z,2.70
2022-10-04T11:23:14.048Z,2.50
2022-10-04T11:26:16.065Z,1.60
2022-10-04T11:29:05.662Z,2.60
2022-10-04T11:31:54.665Z,1.60
2022-10-04T11:35:06.784Z,3.80
2022-10-04T11:38:06.666Z,2.40
2022-10-04T11:41:24.232Z,3.00
2022-10-04T11:44:30.947Z,1.20
2022-10-04T11:47:45.258Z,1.50
2022-10-04T11:51:00.262Z,2.10
2022-10-04T11:54:00.904Z,1.20
2022-10-04T11:56:55.900Z,2.70
2022-10-04T11:59:38.307Z,2.10
2022-10-04T12:02:35.687Z,2.30
2022-10-04T12:05:39.615Z,2.80
2022-10-04T12:08:32.277Z,1.30
2022-10-04T12:12:05.015Z,4.00
2022-10-04T12:15:03.858Z,2.10
2022-10-04T12:17:47.985Z,2.40
2022-10-04T12:20:56.414Z,1.80
2022-10-04T12:23:59.561Z,2.30
2022-10-04T12:26:59.182Z,2.20
2022-10-04T12:30:10.409Z,1.40
2022-10-04T12:33:27.108Z,2.10
2022-10-04T12:36:02.841Z,4.30
2022-10-04T12:39:05.623Z,2.80
2022-10-04T12:42:09.273Z,3.10
2022-10-04T12:45:17.095Z,1.30
2022-10-04T12:48:10.083Z,3.60
2022-10-04T12:51:36.633Z,1.70
2022-10-04T12:54:41.476Z,2.90
2022-10-04T12:57:47.935Z,1.50
2022-10-04T13:00:19.485Z,1.30
2022-10-04T13:03:13.253Z,3.40
2022-10-04T13:06:01.949Z,2.10
2022-10-04T13:09:01.412Z,3.30
2022-10-04T13:12:00.910Z,3.60
2022-10-04T13:14:35.464Z,2.30
2022-10-04T13:17:49.005Z,1.90
2022-10-04T13:20:41.176Z,1.50
2022-10-04T13:23:23.373Z,3.20
2022-10-04T13:26:30.290Z,1.30
2022-10-04T13:29:27.077Z,1.80
2022-10-04T13:32:12.318Z,3.10
2022-10-04T13:35:20.778Z,1.70
2022-10-04T13:38:37.577Z,3.00
2022-10-04T13:41:47.701Z,3.20
2022-10-04T13:44:46.028Z,2.00
2022-10-04T13:47:56.490Z,3.00
2022-10-04T13:51:01.570Z,1.80
2022-10-04T13:54:36.263Z,3.30
2022-10-04T13:57:55.849Z,1.30
2022-10-04T14:01:31.311Z,1.70
2022-10-04T14:04:16.667Z,1.20
2022-10-04T14:07:26.391Z,2.50
2022-10-04T14:11:01.636Z,1.40
2022-10-04T14:14:16.910Z,2.20
2022-10-04T14:17:29.916Z,2.50
2022-10-04T14:20:29.464Z,3.30
2022-10-04T14:23:43.945Z,2.10
2022-10-04T14:26:36.717Z,3.70
2022-10-04T14:29:34.223Z,2.90
2022-10-04T14:32:46.913Z,2.20
2022-10-04T14:35:34.423Z,2.10
2022-10-04T14:38:03.987Z,1.90
2022-10-04T14:41:00.310Z,2.90
2022-10-04T14:44:09.900Z,3.00
2022-10-04T14:47:06.571Z,2.30
2022-10-04T14:50:04.834Z,2.40
2022-10-04T14:52:46.244Z,2.00
2022-10-04T14:55:32.918Z,2.70
2022-10-04T14:58:40.370Z,3.00
2022-10-04T15:01:27.194Z,2.60
2022-10-04T15:04:27.285Z,5.00
2022-10-04T15:07:16.856Z,1.70
2022-10-04T15:10:02.804Z,3.90
2022-10-04T15:13:11.218Z,3.30
2022-10-04T15:16:07.073Z,2.80
2022-10-04T15:18:55.671Z,1.50
2022-10-04T15:21:46.034Z,3.20
2022-10-04T15:24:15.105Z,3.00
2022-10-04T15:26:50.553Z,4.10
2022-10-04T15:29:27.478Z,2.60
2022-10-04T15:32:15.459Z,4.00
2022-10-04T15:35:20.373Z,2.60
2022-10-04T15:38:33.792Z,3.70
2022-10-04T15:41:19.219Z,4.00
2022-10-04T15:43:54.744Z,2.80
2022-10-04T15:46:52.080Z,2.40
2022-10-04T15:49:59.132Z,4.30
2022-10-04T15:52:44.286Z,2.00
2022-10-04T15:55:22.077Z,3.90
2022-10-04T15:58:29.050Z,4.50
2022-10-04T16:01:13.544Z,3.40
2022-10-04T16:04:19.353Z,2.80
2022-10-04T16:07:01.250Z,3.90
2022-10-04T16:09:44.720Z,3.40
2022-10-04T16:12:51.771Z,3.90
2022-10-04T16:15:31.489Z,4.50
2022-10-04T16:18:46.261Z,3.30
2022-10-04T16:21:46.789Z,3.50
2022-10-04T16:24:19.517Z,4.20
2022-10-04T16:26:52.928Z,5.50
2022-10-04T16:29:31.900Z,3.90
2022-10-04T16:32:09.496Z,3.90
2022-10-04T16:34:52.950Z,4.40
2022-10-04T16:37:56.596Z,4.80
2022-10-04T16:40:39.658Z,4.70
2022-10-04T16:43:25.797Z,4.30
2022-10-04T16:46:11.126Z,4.40
2022-10-04T16:48:40.222Z,5.90
2022-10-04T16:51:16.154Z,6.10
2022-10-04T16:54:06.398Z,5.80
2022-10-04T16:57:00.311Z,5.10
2022-10-04T16:59:38.560Z,4.90
2022-10-04T17:02:40.217Z,5.10
2022-10-04T17:05:22.399Z,5.90
2022-10-04T17:08:17.382Z,5.60
2022-10-04T17:10:49.815Z,6.00
2022-10-04T17:13:35.870Z,6.10
2022-10-04T17:16:18.891Z,8.20
2022-10-04T17:19:32.629Z,8.30
2022-10-04T17:22:37.825Z,9.80
2022-10-04T17:25:33.070Z,7.00
2022-10-04T17:28:26.880Z,9.40
2022-10-04T17:31:05.838Z,9.10
2022-10-04T17:33:58.684Z,10.40
2022-10-04T17:36:38.590Z,13.60
2022-10-04T17:39:38.625Z,11.60
2022-10-04T17:42:27.699Z,10.30
2022-10-04T17:45:20.552Z,12.00
2022-10-04T17:48:34.384Z,10.60
2022-10-04T17:51:58.382Z,11.90
2022-10-04T17:55:02.569Z,14.70
2022-10-04T17:58:01.743Z,15.00
2022-10-04T18:01:01.600Z,10.70
2022-10-04T18:04:08.738Z,10.20
2022-10-04T18:07:05.419Z,10.90
2022-10-04T18:09:42.883Z,13.30
2022-10-04T18:12:25.909Z,11.10
2022-10-04T18:15:16.828Z,12.10
2022-10-04T18:17:51.000Z,16.50
2022-10-04T18:20:44.139Z,13.70
2022-10-04T18:23:25.500Z,9.60
2022-10-04T18:26:24.583Z,11.40
2022-10-04T18:28:57.960Z,13.00
2022-10-04T18:31:41.368Z,9.60
2022-10-04T18:34:29.441Z,9.50
2022-10-04T18:37:29.043Z,11.90
2022-10-04T18:40:16.910Z,9.10
2022-10-04T18:43:01.927Z,8.10
2022-10-04T18:45:33.933Z,9.00
2022-10-04T18:48:16.419Z,10.30
2022-10-04T18:50:44.992Z,9.70
2022-10-04T18:53:23.785Z,9.80
2022-10-04T18:56:13.861Z,11.20
2022-10-04T18:59:29.981Z,8.00
2022-10-04T19:02:17.620Z,13.30
2022-10-04T19:05:19.108Z,9.50
2022-10-04T19:07:54.440Z,9.10
2022-10-04T19:10:42.195Z,9.30
2022-10-04T19:13:45.164Z,10.00
2022-10-04T19:16:38.520Z,8.90
2022-10-04T19:19:42.352Z,8.70
2022-10-04T19:22:48.261Z,10.80
2022-10-04T19:25:32.013Z,10.70
2022-10-04T19:28:15.318Z,9.70
2022-10-04T19:31:18.413Z,13.40
2022-10-04T19:34:45.324Z,9.80
2022-10-04T19:37:31.776Z,9.10
2022-10-04T19:40:30.184Z,11.30
2022-10-04T19:43:20.655Z,9.60
2022-10-04T19:46:09.131Z,10.90
2022-10-04T19:48:49.658Z,10.50
2022-10-04T19:51:38.184Z,12.50
2022-10-04T19:54:16.106Z,9.80
2022-10-04T19:56:49.243Z,8.60
2022-10-04T19:59:40.192Z,13.40
2022-10-04T20:02:13.164Z,11.30
2022-10-04T20:04:41.893Z,8.80
2022-10-04T20:07:27.303Z,13.30
2022-10-04T20:10:25.858Z,11.60
2022-10-04T20:13:12.351Z,12.90
2022-10-04T20:15:40.229Z,10.40
2022-10-04T20:18:32.684Z,10.00
2022-10-04T20:21:06.431Z,9.80
2022-10-04T20:23:51.169Z,10.00
2022-10-04T20:26:55.122Z,11.30
2022-10-04T20:29:37.803Z,12.70
2022-10-04T20:32:34.582Z,13.70
2022-10-04T20:35:06.008Z,8.60
2022-10-04T20:37:45.424Z,11.20
2022-10-04T20:40:27.235Z,8.70
2022-10-04T20:43:13.422Z,11.60
2022-10-04T20:45:53.913Z,11.00
2022-10-04T20:48:27.318Z,11.60
2022-10-04T20:50:56.075Z,10.30
2022-10-04T20:53:26.080Z,9.30
2022-10-04T20:56:32.780Z,12.30
2022-10-04T20:59:02.966Z,11.70
2022-10-04T21:01:33.504Z,9.40
2022-10-04T21:04:46.572Z,10.30
2022-10-04T21:07:26.613Z,9.60
2022-10-04T21:10:07.096Z,9.60
2022-10-04T21:12:33.337Z,6.60
2022-10-04T21:15:06.306Z,8.40
2022-10-04T21:17:35.857Z,8.60
2022-10-04T21:20:04.593Z,10.30
2022-10-04T21:22:33.976Z,9.80
2022-10-04T21:25:06.039Z,8.70
2022-10-04T21:27:40.637Z,12.70
2022-10-04T21:30:14.966Z,10.90
2022-10-04T21:32:41.966Z,10.90
2022-10-04T21:35:09.657Z,10.00
2022-10-04T21:37:36.073Z,9.90
2022-10-04T21:40:05.140Z,12.40
2022-10-04T21:42:31.934Z,12.60
2022-10-04T21:44:58.598Z,9.10
2022-10-04T21:47:24.984Z,8.90
2022-10-04T21:49:51.964Z,9.30
2022-10-04T21:52:18.625Z,6.70
2022-10-04T21:54:45.531Z,9.70
2022-10-04T21:57:13.146Z,8.50
2022-10-04T21:59:39.572Z,7.90
2022-10-04T22:02:07.196Z,10.00
2022-10-04T22:04:33.703Z,9.30
2022-10-04T22:07:00.031Z,9.00
2022-10-04T22:09:26.475Z,10.30
2022-10-04T22:11:52.826Z,8.30
2022-10-04T22:14:19.183Z,7.40
2022-10-04T22:16:46.025Z,10.20
2022-10-04T22:19:12.715Z,8.40
2022-10-04T22:21:39.071Z,11.20
2022-10-04T22:24:16.100Z,10.80
2022-10-04T22:26:42.574Z,10.40
2022-10-04T22:29:15.209Z,12.40
2022-10-04T22:31:48.969Z,9.90
2022-10-04T22:34:19.645Z,8.80
2022-10-04T22:36:49.285Z,9.40
2022-10-04T22:39:19.657Z,9.80
2022-10-04T22:41:52.796Z,9.20
2022-10-04T22:44:30.580Z,11.70
2022-10-04T22:47:00.435Z,8.30
2022-10-04T22:49:40.539Z,6.90
2022-10-04T22:52:24.221Z,7.60
2022-10-04T22:54:54.180Z,9.10
2022-10-04T22:57:21.056Z,6.40
2022-10-04T22:59:51.997Z,7.00
2022-10-04T23:02:23.563Z,8.40
2022-10-04T23:04:55.047Z,8.20
2022-10-04T23:07:22.451Z,7.90
2022-10-04T23:09:49.740Z,9.50
2022-10-04T23:12:16.339Z,8.10
2022-10-04T23:14:42.754Z,8.50
2022-10-04T23:17:28.568Z,8.20
2022-10-04T23:20:19.804Z,8.50
2022-10-04T23:22:50.846Z,9.40
2022-10-04T23:25:20.815Z,8.70
2022-10-04T23:27:47.962Z,14.30
2022-10-04T23:30:20.760Z,21.40
2022-10-04T23:32:51.353Z,17.80
2022-10-04T23:35:25.404Z,13.50
2022-10-04T23:37:54.201Z,12.30
2022-10-04T23:40:23.901Z,11.60
2022-10-04T23:42:55.908Z,6.80
2022-10-04T23:45:24.670Z,7.00
2022-10-04T23:47:58.613Z,9.10
2022-10-04T23:50:30.737Z,8.90
2022-10-04T23:53:05.684Z,8.00
2022-10-04T23:55:37.550Z,7.70
2022-10-04T23:58:18.709Z,8.90
